This is the latest recevied weather packets stored in our database for station/object WD7OO. If no packets are shown the sender has not sent any weather packets the latest 10 day(s).
| Time | Temp. | Humidity | Pressure | Rain* | Wind** | Luminosity | Snow |
|---|---|---|---|---|---|---|---|
| 1777602854 | 5.56° C | 96% | 1016 hPa | 3.05 mm | - | 0 W/m² | - |
| 1777602549 | 6.11° C | 96% | 1015.8 hPa | 3.05 mm | - | 0 W/m² | - |
| 1777602245 | 6.11° C | 95% | 1015.7 hPa | 1.27 mm | - | 0 W/m² | - |
| 1777601941 | 6.11° C | 95% | 1016 hPa | 0 mm | - | 0 W/m² | - |
| 1777601641 | 6.11° C | 94% | 1015.5 hPa | 1.78 mm | - | 0 W/m² | - |
| 1777601337 | 6.11° C | 94% | 1015.5 hPa | 1.78 mm | - | 0 W/m² | - |
| 1777600730 | 6.11° C | 92% | 1015.6 hPa | 1.27 mm | - | 0 W/m² | - |
| 1777586161 | 13.33° C | 48% | 1014.5 hPa | 0 mm | - | 186 W/m² | - |
| 1777585859 | 13.33° C | 47% | 1014.7 hPa | 0 mm | - | 212 W/m² | - |
| 1777585559 | 13.89° C | 50% | 1014.8 hPa | 0 mm | - | 195 W/m² | - |
| 1777585255 | 13.89° C | 47% | 1014.8 hPa | 0 mm | - | 215 W/m² | - |
| 1777584647 | 13.33° C | 46% | 1014.8 hPa | 0 mm | - | 482 W/m² | - |
| 1777584344 | 13.89° C | 47% | 1014.8 hPa | 0 mm | - | 333 W/m² | - |
| 1777584040 | 13.33° C | 48% | 1014.9 hPa | 0 mm | - | 319 W/m² | - |
| 1777583434 | 12.78° C | 49% | 1015.2 hPa | 0 mm | - | 268 W/m² | - |
| 1777583133 | 12.78° C | 50% | 1015.3 hPa | 0 mm | - | 232 W/m² | - |
| 1777582829 | 13.33° C | 49% | 1015.2 hPa | 0 mm | - | 277 W/m² | - |
| 1777581309 | 13.33° C | 48% | 1015.5 hPa | 0 mm | - | 371 W/m² | - |
| 1777580400 | 12.78° C | 47% | 1015.4 hPa | 0 mm | - | 186 W/m² | - |
| 1777580096 | 12.78° C | 45% | 1015.8 hPa | 0 mm | - | 164 W/m² | - |
| 1777579792 | 12.78° C | 50% | 1015.7 hPa | 0 mm | - | 441 W/m² | - |
| 1777578577 | 12.78° C | 48% | 1015.9 hPa | 0 mm | - | 276 W/m² | - |
| 1777577967 | 12.78° C | 47% | 1016.1 hPa | 0 mm | - | 752 W/m² | - |
| 1777577662 | 13.89° C | 45% | 1016.1 hPa | 0 mm | - | 473 W/m² | - |
| 1777577361 | 12.22° C | 46% | 1016.1 hPa | 0 mm | - | 942 W/m² | - |
* Rain latest hour (hover to see other rain measurements)
** Current wind speed in m/s (hover to see current wind gust speed)